Time;durP1;ratioP1;P1;durP2;ratioP2;P2;SDS_P1;SDS_P2;PMS_P1;PMS_P2;Temp;Humidity;BMP_temperature;BMP_pressure;BME280_temperature;BME280_humidity;BME280_pressure;Samples;Min_cycle;Max_cycle;Signal;HPM_P1;HPM_P2
2022/12/10 00:02:18;;;;;;;10.27;6.40;;;3.70;59.90;;;2.21;64.98;100515.78;12177755;19;20022;-84
2022/12/10 00:06:24;;;;;;;11.48;6.20;;;3.70;59.90;;;2.12;65.13;100500.53;12182637;19;20425;-84
2022/12/10 00:10:26;;;;;;;10.10;6.15;;;3.70;59.90;;;1.99;65.15;100473.38;12170738;19;20038;-84
2022/12/10 00:14:27;;;;;;;12.40;6.97;;;3.80;60.10;;;2.21;65.02;100520.94;12182442;19;20114;-84
2022/12/10 00:18:29;;;;;;;10.25;6.32;;;3.70;59.90;;;2.18;64.85;100518.41;12187944;19;20014;-84
2022/12/10 00:22:31;;;;;;;12.30;6.93;;;3.70;59.90;;;2.16;64.94;100514.16;12188093;19;20014;-84
2022/12/10 00:26:37;;;;;;;11.63;6.43;;;3.70;59.90;;;2.11;64.93;100508.31;12192922;19;20018;-84
2022/12/10 00:30:39;;;;;;;9.95;6.43;;;3.70;59.90;;;2.09;65.04;100510.06;12179256;19;20022;-84
2022/12/10 00:34:41;;;;;;;11.30;6.25;;;3.70;59.80;;;2.19;65.09;100529.56;12185887;19;20354;-84
2022/12/10 00:38:44;;;;;;;10.68;6.50;;;3.70;59.80;;;2.11;64.97;100511.72;12188572;19;20260;-84
2022/12/10 00:42:46;;;;;;;12.00;6.30;;;3.70;59.80;;;2.03;64.93;100513.63;12183349;19;20021;-84
2022/12/10 00:46:48;;;;;;;8.68;5.57;;;3.70;59.80;;;2.08;64.92;100516.94;12179363;19;20023;-84
2022/12/10 00:51:03;;;;;;;11.18;6.53;;;3.70;59.80;;;2.12;65.13;100539.16;12177548;19;20030;-84
2022/12/10 00:55:05;;;;;;;12.07;5.68;;;3.60;59.70;;;2.02;64.83;100521.38;12180748;19;20039;-84
2022/12/10 00:59:07;;;;;;;11.82;5.95;;;3.60;59.70;;;1.94;64.95;100519.81;12177671;19;20021;-84
2022/12/10 01:03:09;;;;;;;11.23;5.97;;;3.60;59.70;;;2.04;64.88;100533.34;12179869;19;20370;-84
2022/12/10 01:07:10;;;;;;;10.43;6.10;;;3.60;59.60;;;1.74;64.77;100483.41;12190996;19;20141;-84
2022/12/10 01:11:15;;;;;;;9.63;5.60;;;3.60;59.70;;;2.10;64.96;100542.66;12189937;19;20018;-84
2022/12/10 01:15:16;;;;;;;7.00;5.13;;;3.60;59.70;;;1.98;64.93;100524.03;12190121;19;20035;-84
2022/12/10 01:19:20;;;;;;;10.02;5.65;;;3.60;59.70;;;2.06;64.99;100541.06;12183934;19;20086;-84
2022/12/10 01:23:21;;;;;;;7.70;5.30;;;3.80;59.80;;;2.12;65.02;100551.19;12183634;19;20033;-84
2022/12/10 01:27:23;;;;;;;9.27;5.55;;;3.80;59.80;;;2.12;64.94;100549.47;12181407;19;20083;-84
2022/12/10 01:31:32;;;;;;;13.10;6.88;;;3.60;59.70;;;2.01;64.90;100530.84;12181646;19;20041;-84
2022/12/10 01:35:37;;;;;;;10.57;6.30;;;3.60;59.70;;;2.04;64.73;100541.06;12185343;19;20014;-84
2022/12/10 01:39:39;;;;;;;14.25;7.57;;;3.50;59.60;;;2.02;64.62;100531.69;12177801;19;20316;-84
2022/12/10 01:43:54;;;;;;;11.43;6.47;;;3.50;59.60;;;1.95;64.75;100524.09;12193425;19;20480;-84
2022/12/10 01:47:56;;;;;;;14.90;8.20;;;3.50;59.60;;;1.91;64.90;100519.91;12191235;19;21266;-84
2022/12/10 01:51:57;;;;;;;10.52;6.32;;;3.50;59.50;;;1.84;64.92;100510.63;12191206;19;20298;-84
2022/12/10 01:56:03;;;;;;;11.70;6.60;;;3.40;59.50;;;1.89;64.94;100528.53;12191697;19;20010;-83
2022/12/10 02:00:06;;;;;;;10.52;6.53;;;3.40;59.60;;;1.90;65.04;100530.25;12191067;19;20066;-83
2022/12/10 02:04:41;;;;;;;11.65;6.10;;;3.40;59.60;;;1.88;64.86;100532.00;12199756;19;20018;-83
2022/12/10 02:09:21;;;;;;;10.15;6.15;;;3.40;59.60;;;1.78;64.92;100510.75;12194776;19;20018;-83
2022/12/10 02:13:50;;;;;;;10.45;6.63;;;3.30;59.60;;;1.70;64.89;100494.63;12188855;19;20038;-83
2022/12/10 02:18:17;;;;;;;9.73;5.95;;;3.30;59.50;;;1.83;64.78;100523.53;12194169;19;20303;-83
2022/12/10 02:22:22;;;;;;;11.38;6.22;;;3.30;59.50;;;1.81;64.90;100515.00;12193769;19;20268;-83
2022/12/10 02:26:46;;;;;;;9.00;5.47;;;3.30;59.50;;;1.84;64.84;100526.09;12175245;19;20510;-83
2022/12/10 02:30:51;;;;;;;10.15;6.25;;;3.30;59.50;;;1.81;64.85;100521.00;12181948;19;20042;-83
2022/12/10 02:35:00;;;;;;;12.70;5.93;;;3.50;59.80;;;1.77;64.84;100515.06;12176990;19;20030;-83
2022/12/10 02:39:05;;;;;;;9.93;5.82;;;3.30;59.60;;;1.81;64.79;100525.28;12178124;19;20292;-83
2022/12/10 02:43:10;;;;;;;10.32;5.82;;;3.30;59.60;;;1.63;64.76;100493.09;12179789;19;20038;-83
2022/12/10 02:47:14;;;;;;;10.13;5.50;;;3.30;59.60;;;1.76;64.94;100507.41;12184574;19;20024;-83
2022/12/10 02:51:21;;;;;;;13.77;5.78;;;3.40;59.60;;;1.89;64.98;100528.53;12184428;19;20022;-82
2022/12/10 02:55:24;;;;;;;10.93;6.18;;;3.30;59.50;;;1.88;64.89;100527.69;12199232;19;20015;-82
2022/12/10 02:59:59;;;;;;;9.68;6.00;;;3.40;59.60;;;1.88;64.97;100537.16;12198223;19;20630;-83
2022/12/10 03:04:50;;;;;;;9.35;5.68;;;3.40;59.60;;;1.77;64.81;100507.34;12198229;19;20029;-83
2022/12/10 03:09:09;;;;;;;9.63;5.63;;;3.40;59.60;;;1.81;65.04;100513.28;12191547;19;21136;-83
2022/12/10 03:13:16;;;;;;;7.93;5.20;;;3.40;59.60;;;1.89;65.05;100526.84;12199671;19;20338;-83
2022/12/10 03:17:19;;;;;;;10.95;5.88;;;3.40;59.50;;;1.90;64.74;100535.41;12202685;19;20015;-83
2022/12/10 03:21:22;;;;;;;7.45;4.93;;;3.70;59.60;;;1.91;65.00;100529.34;12197944;19;20018;-83
2022/12/10 03:25:29;;;;;;;;;;;3.40;59.50;;;1.91;65.04;100525.03;12199465;19;20015;-83
2022/12/10 03:29:37;;;;;;;10.57;5.63;;;3.50;59.70;;;1.86;64.98;100513.16;12186542;19;19922;-83
2022/12/10 03:33:40;;;;;;;11.27;6.43;;;3.60;59.60;;;1.87;64.91;100520.03;12189909;19;20102;-83
2022/12/10 03:37:41;;;;;;;13.25;7.43;;;3.60;59.50;;;1.79;64.88;100503.91;12189995;19;20011;-83
2022/12/10 03:41:43;;;;;;;9.60;5.47;;;3.50;59.40;;;1.84;65.02;100517.53;12187881;19;20038;-83
2022/12/10 03:45:45;;;;;;;9.52;5.97;;;3.70;59.50;;;1.93;65.00;100530.19;12192319;19;20948;-83
2022/12/10 03:49:46;;;;;;;9.20;5.93;;;3.50;59.50;;;1.91;65.01;100529.34;12193577;19;20296;-83
2022/12/10 03:53:49;;;;;;;9.93;5.45;;;3.50;59.50;;;1.94;64.89;100543.00;12188332;19;20014;-83
2022/12/10 03:57:51;;;;;;;8.30;5.25;;;3.50;59.50;;;1.91;65.13;100542.22;12187109;19;20018;-83
2022/12/10 04:01:52;;;;;;;9.02;5.28;;;3.50;59.50;;;1.93;65.13;100550.78;12185219;19;20450;-83
2022/12/10 04:05:54;;;;;;;9.20;5.70;;;3.50;59.90;;;1.76;65.17;100526.25;12185123;19;20025;-82
2022/12/10 04:09:55;;;;;;;9.93;5.97;;;3.50;59.50;;;1.88;65.04;100550.03;12182170;19;20006;-83
2022/12/10 04:18:17;;;;;;;8.90;4.88;;;3.50;59.40;;;1.88;64.86;100557.75;12193632;19;20019;-84
2022/12/10 04:26:51;;;;;;;7.55;4.82;;;3.40;59.40;;;1.73;65.01;100528.91;12179656;19;20046;-83
2022/12/10 04:30:53;;;;;;;8.65;5.10;;;3.50;59.40;;;1.86;65.19;100551.78;12177277;19;20031;-83
2022/12/10 04:34:55;;;;;;;10.13;5.25;;;3.40;59.40;;;1.76;65.17;100531.41;12177440;19;20064;-83
2022/12/10 04:38:57;;;;;;;7.93;4.97;;;3.40;59.40;;;1.69;64.84;100531.56;12180905;19;20043;-83
2022/12/10 04:42:58;;;;;;;9.02;5.60;;;3.40;59.30;;;1.71;64.92;100537.53;12179627;19;20018;-83
2022/12/10 04:47:02;;;;;;;8.65;5.35;;;3.50;59.30;;;1.61;64.84;100523.16;12186841;19;20268;-83
2022/12/10 04:51:04;;;;;;;8.65;5.75;;;3.40;59.30;;;1.76;64.96;100549.41;12191785;19;20050;-83
2022/12/10 04:55:06;;;;;;;9.43;5.97;;;3.30;59.30;;;1.75;65.03;100550.28;12193486;19;20047;-83
2022/12/10 04:59:09;;;;;;;8.43;5.63;;;3.40;59.40;;;1.73;64.93;100546.91;12187048;19;20018;-82
2022/12/10 05:03:10;;;;;;;8.23;6.00;;;3.40;59.60;;;1.72;64.82;100540.06;12194693;19;20022;-83
2022/12/10 05:07:12;;;;;;;10.25;6.53;;;3.30;59.30;;;1.74;64.93;100542.59;12190601;19;20029;-83
2022/12/10 05:11:17;;;;;;;11.07;6.20;;;3.60;59.40;;;1.75;64.79;100554.59;12187540;19;20383;-82
2022/12/10 05:15:19;;;;;;;8.85;5.40;;;3.30;59.30;;;1.58;64.84;100528.38;12195736;19;20011;-83
2022/12/10 05:19:23;;;;;;;8.75;5.85;;;3.30;59.30;;;1.71;65.01;100564.13;12202873;19;20400;-83
2022/12/10 05:23:28;;;;;;;7.93;5.45;;;3.40;59.30;;;1.72;64.89;100563.22;12200867;19;20731;-83
2022/12/10 05:27:33;;;;;;;10.32;6.05;;;3.50;59.40;;;1.42;64.88;100507.28;12202746;19;20021;-83
2022/12/10 05:31:35;;;;;;;9.52;6.00;;;3.30;59.30;;;1.47;64.79;100514.00;12197835;19;20014;-83
2022/12/10 05:35:37;;;;;;;10.18;5.72;;;3.30;59.40;;;1.73;64.93;100556.38;12201667;19;20070;-83
2022/12/10 05:39:39;;;;;;;8.68;5.18;;;3.30;59.40;;;1.57;64.90;100531.81;12196007;19;20622;-84
2022/12/10 05:43:42;;;;;;;8.82;5.93;;;3.50;59.40;;;1.76;65.04;100558.88;12197750;19;20491;-83
2022/12/10 05:47:44;;;;;;;10.35;5.78;;;3.40;59.30;;;1.69;65.04;100555.56;12191847;19;20015;-83
2022/12/10 05:51:46;;;;;;;9.75;6.13;;;3.40;59.30;;;1.72;64.93;100549.50;12187932;19;20672;-83
2022/12/10 05:55:48;;;;;;;8.25;5.85;;;3.60;59.40;;;1.79;65.06;100560.53;12199298;19;20071;-83
2022/12/10 05:59:50;;;;;;;9.90;6.05;;;3.40;59.30;;;1.57;64.86;100535.25;12199814;19;20034;-83
2022/12/10 06:03:52;;;;;;;11.32;6.55;;;3.40;59.30;;;1.67;64.88;100543.63;12204253;19;20042;-83
2022/12/10 06:07:54;;;;;;;8.63;5.70;;;3.40;59.30;;;1.75;65.10;100560.56;12198430;19;20855;-83
2022/12/10 06:11:55;;;;;;;9.68;5.70;;;3.40;59.30;;;1.77;65.13;100558.81;12195413;19;20069;-83
2022/12/10 06:15:57;;;;;;;8.68;5.63;;;3.70;59.50;;;1.82;64.81;100566.47;12196666;19;20033;-82
2022/12/10 06:20:02;;;;;;;9.77;6.07;;;3.40;59.30;;;1.82;64.90;100558.72;12189612;19;20455;-83
2022/12/10 06:24:04;;;;;;;10.38;6.43;;;3.40;59.20;;;1.80;64.78;100559.66;12189486;19;20114;-83
2022/12/10 06:28:07;;;;;;;9.77;5.93;;;3.40;59.30;;;1.71;64.80;100551.25;12192749;19;20070;-83
2022/12/10 06:32:09;;;;;;;12.05;6.68;;;3.30;59.20;;;1.63;64.92;100542.00;12191758;19;20485;-83
2022/12/10 06:36:14;;;;;;;10.18;6.15;;;3.30;59.20;;;1.79;64.65;100576.81;12189270;19;20418;-84
2022/12/10 06:40:17;;;;;;;10.98;6.43;;;3.30;59.30;;;1.47;64.66;100533.75;12181229;19;20086;-83
2022/12/10 06:44:19;;;;;;;10.80;6.53;;;3.50;59.40;;;1.53;64.96;100549.06;12171880;19;20131;-83
2022/12/10 06:48:21;;;;;;;10.35;6.18;;;3.30;59.40;;;1.69;64.84;100577.91;12167018;19;20041;-84
2022/12/10 06:52:23;;;;;;;9.68;6.05;;;3.30;59.40;;;1.70;64.74;100585.59;12170152;19;20319;-83
2022/12/10 06:56:25;;;;;;;10.70;6.35;;;3.30;59.40;;;1.70;64.85;100595.91;12174836;19;20288;-83
2022/12/10 07:00:28;;;;;;;10.48;6.53;;;3.30;59.30;;;1.70;64.82;100603.63;12165055;19;20018;-82
2022/12/10 07:04:29;;;;;;;9.40;6.07;;;3.40;59.40;;;1.59;64.81;100586.69;12162285;19;20287;-82
2022/12/10 07:08:31;;;;;;;6.82;5.13;;;3.30;59.70;;;1.72;64.82;100614.69;12157295;19;20622;-82
2022/12/10 07:12:33;;;;;;;8.98;5.78;;;3.30;59.40;;;1.50;64.90;100572.28;12153380;19;20010;-82
2022/12/10 07:16:34;;;;;;;9.57;5.65;;;3.60;59.50;;;1.60;64.90;100598.69;12156275;19;20018;-82
2022/12/10 07:20:36;;;;;;;7.95;5.03;;;3.30;59.40;;;1.61;65.05;100601.22;12154068;19;20081;-82
2022/12/10 07:24:38;;;;;;;12.75;7.57;;;3.30;59.40;;;1.68;64.87;100602.78;12155481;19;20010;-84
2022/12/10 07:28:40;;;;;;;11.25;6.85;;;3.30;59.40;;;1.53;65.05;100578.19;12155445;19;20019;-82
2022/12/10 07:32:42;;;;;;;8.75;6.05;;;3.50;59.50;;;1.33;64.87;100547.75;12153633;19;20327;-81
2022/12/10 07:36:44;;;;;;;9.15;5.78;;;3.60;59.60;;;1.63;64.82;100596.03;12157443;19;20035;-82
2022/12/10 07:40:46;;;;;;;10.30;5.63;;;3.30;59.50;;;1.65;64.94;100608.00;12151731;19;20527;-81
2022/12/10 07:44:48;;;;;;;10.10;6.57;;;3.50;59.60;;;1.74;64.91;100622.41;12157123;19;20805;-81
2022/12/10 07:48:51;;;;;;;9.00;5.85;;;3.50;59.60;;;1.50;64.77;100585.97;12157832;19;20011;-82
2022/12/10 07:52:52;;;;;;;10.70;5.78;;;3.40;59.50;;;1.84;65.02;100643.66;12150644;19;20022;-82
2022/12/10 07:56:54;;;;;;;9.27;5.90;;;3.40;59.50;;;1.76;65.05;100629.22;12155587;19;20018;-82
2022/12/10 08:00:56;;;;;;;8.82;6.47;;;3.40;59.60;;;1.84;65.10;100639.38;12150854;19;20025;-83
2022/12/10 08:04:58;;;;;;;12.18;7.43;;;3.50;59.60;;;1.84;64.98;100641.94;12150923;19;20011;-82
2022/12/10 08:09:00;;;;;;;9.30;6.38;;;3.40;59.50;;;1.89;65.04;100646.97;12151821;19;20018;-82
2022/12/10 08:13:02;;;;;;;8.27;6.22;;;3.40;59.50;;;1.88;64.99;100643.56;12151454;19;20795;-82
2022/12/10 08:17:03;;;;;;;11.50;6.95;;;3.50;59.60;;;1.72;65.02;100622.41;12159150;19;20109;-83
2022/12/10 08:21:14;;;;;;;9.63;6.40;;;3.50;59.80;;;1.92;65.01;100663.22;12147433;19;20018;-82
2022/12/10 08:25:16;;;;;;;8.55;6.05;;;3.50;59.60;;;1.90;65.01;100648.69;12152330;19;20030;-82
2022/12/10 08:29:18;;;;;;;7.78;5.65;;;3.50;59.70;;;1.89;65.08;100650.41;12156649;19;20158;-82
2022/12/10 08:33:20;;;;;;;9.55;6.38;;;3.50;59.60;;;1.97;65.10;100665.69;12151432;19;20933;-82
2022/12/10 08:37:22;;;;;;;8.88;6.03;;;3.50;59.60;;;1.90;64.82;100659.81;12151083;19;20022;-82
2022/12/10 08:41:24;;;;;;;9.38;6.10;;;3.50;59.60;;;1.95;64.93;100655.44;12157360;19;20056;-82
2022/12/10 08:45:25;;;;;;;7.25;4.88;;;3.60;59.70;;;1.99;65.21;100667.34;12155858;19;20828;-82
2022/12/10 08:49:27;;;;;;;7.53;5.80;;;3.60;59.70;;;2.04;65.08;100669.84;12155880;19;20018;-82
2022/12/10 08:53:29;;;;;;;8.68;6.10;;;3.60;59.70;;;2.01;65.14;100669.91;12151703;19;20133;-82
2022/12/10 08:57:31;;;;;;;10.65;6.70;;;3.60;59.60;;;1.94;65.04;100664.00;12172337;19;20073;-82
2022/12/10 09:01:33;;;;;;;10.95;7.25;;;3.70;59.70;;;1.99;65.20;100669.91;12161751;19;20106;-84
2022/12/10 09:05:35;;;;;;;9.90;6.80;;;3.80;59.70;;;1.95;64.97;100658.00;12158246;19;20845;-83
2022/12/10 09:09:36;;;;;;;9.20;6.15;;;3.70;59.60;;;2.11;65.01;100686.88;12151224;19;20358;-83
2022/12/10 09:13:38;;;;;;;9.57;6.40;;;3.70;59.60;;;2.11;65.17;100686.03;12143658;19;20266;-84
2022/12/10 09:17:40;;;;;;;9.30;6.80;;;3.70;59.70;;;2.11;65.04;100684.28;12142766;19;20269;-82
2022/12/10 09:21:42;;;;;;;10.65;7.60;;;3.70;59.70;;;2.04;64.99;100672.41;12149350;19;20018;-82
2022/12/10 09:25:44;;;;;;;12.43;8.65;;;3.70;59.70;;;2.12;64.96;100674.84;12154744;19;20653;-83
2022/12/10 09:29:47;;;;;;;10.38;7.47;;;3.70;59.70;;;2.06;65.08;100673.22;12147791;19;20032;-83
2022/12/10 09:33:52;;;;;;;12.20;7.65;;;3.70;59.80;;;2.15;64.95;100690.22;12156294;19;20015;-82
2022/12/10 09:37:54;;;;;;;9.77;6.70;;;3.70;59.80;;;2.02;65.19;100657.88;12161505;19;20878;-83
2022/12/10 09:42:40;;;;;;;11.50;8.25;;;3.80;59.90;;;2.17;65.13;100689.31;12171125;19;20022;-83
2022/12/10 09:47:13;;;;;;;9.65;6.85;;;3.70;59.80;;;2.10;65.16;100668.84;12149388;19;20014;-83
2022/12/10 09:51:25;;;;;;;9.82;6.35;;;3.80;59.90;;;2.15;64.97;100680.75;12147399;19;20300;-84
2022/12/10 09:55:45;;;;;;;8.85;6.22;;;3.80;59.90;;;2.03;64.89;100652.69;12153340;19;20372;-82
2022/12/10 09:59:50;;;;;;;8.27;6.25;;;3.80;59.90;;;2.08;65.20;100656.03;12153969;19;20866;-83
2022/12/10 10:03:53;;;;;;;13.75;6.88;;;3.80;59.90;;;2.28;65.16;100675.34;12158297;19;20015;-83
2022/12/10 10:08:04;;;;;;;10.05;6.88;;;3.80;59.90;;;2.28;64.85;100675.34;12164815;19;20015;-83
2022/12/10 10:12:15;;;;;;;8.10;6.50;;;3.80;59.90;;;2.22;65.05;100669.44;12192947;19;20025;-84
2022/12/10 10:16:24;;;;;;;9.43;6.70;;;3.90;59.90;;;2.17;65.05;100650.66;12168608;19;20774;-82
2022/12/10 10:20:26;;;;;;;10.77;7.20;;;3.90;59.90;;;2.30;65.14;100666.72;12160609;19;20783;-83
2022/12/10 10:24:45;;;;;;;9.77;6.55;;;3.90;60.00;;;1.98;65.20;100621.03;12164807;19;20025;-83
2022/12/10 10:28:51;;;;;;;8.25;6.00;;;3.90;59.90;;;2.37;64.90;100680.28;12176633;19;20006;-81
2022/12/10 10:32:56;;;;;;;8.32;5.97;;;3.90;59.90;;;2.39;65.16;100671.66;12177203;19;20869;-82
2022/12/10 10:37:00;;;;;;;11.10;6.38;;;3.90;59.90;;;2.32;64.90;100664.09;12177416;19;20018;-82
2022/12/10 10:41:04;;;;;;;8.88;5.25;;;4.00;60.10;;;2.32;64.92;100661.50;12165634;19;20041;-82
2022/12/10 10:45:40;;;;;;;8.13;6.28;;;3.90;60.00;;;2.37;65.10;100665.66;12174568;19;20020;-82
2022/12/10 10:49:44;;;;;;;7.68;5.50;;;4.00;60.00;;;2.43;65.13;100664.69;12170647;19;20799;-82
2022/12/10 10:53:52;;;;;;;7.85;6.07;;;4.00;60.00;;;2.47;64.80;100665.47;12167601;19;20015;-82
2022/12/10 10:57:54;;;;;;;7.57;5.53;;;4.00;60.10;;;2.40;65.15;100646.72;12172670;19;20021;-82
2022/12/10 11:02:22;;;;;;;8.68;5.57;;;4.10;60.10;;;2.49;65.09;100659.41;12177790;19;20019;-82
2022/12/10 11:06:24;;;;;;;8.45;5.90;;;4.00;60.00;;;2.48;65.13;100654.28;12175745;19;20026;-83
2022/12/10 11:10:28;;;;;;;7.65;5.28;;;4.10;60.10;;;2.48;65.12;100652.53;12161758;19;20018;-83
2022/12/10 11:14:49;;;;;;;8.75;5.90;;;4.10;60.10;;;2.48;65.21;100643.97;12168766;19;20018;-82
2022/12/10 11:19:02;;;;;;;8.05;5.65;;;4.10;60.00;;;2.53;65.12;100644.72;12180120;19;20586;-82
2022/12/10 11:23:12;;;;;;;9.32;5.75;;;4.10;60.00;;;2.59;65.25;100644.56;12190944;19;20984;-84
2022/12/10 11:27:38;;;;;;;7.15;5.75;;;4.20;60.20;;;2.55;65.32;100636.06;12186559;19;20023;-82
2022/12/10 11:32:04;;;;;;;8.90;6.45;;;4.10;60.10;;;2.59;65.00;100642.84;12178409;19;20011;-81
2022/12/10 11:36:22;;;;;;;12.73;8.10;;;4.20;60.10;;;2.59;65.19;100640.28;12182664;19;20105;-82
2022/12/10 11:40:41;;;;;;;9.23;6.55;;;4.10;59.90;;;2.58;65.13;100633.41;12182981;19;20018;-83
2022/12/10 11:45:26;;;;;;;11.65;7.10;;;4.20;59.90;;;2.59;65.03;100636.81;12176776;19;20504;-84
2022/12/10 11:49:49;;;;;;;10.48;7.15;;;4.10;59.90;;;2.58;65.08;100643.72;12171174;19;20061;-84
2022/12/10 11:54:12;;;;;;;8.52;6.07;;;4.10;59.90;;;2.56;65.10;100635.16;12174252;19;20011;-82
2022/12/10 11:58:39;;;;;;;9.63;6.43;;;4.10;60.00;;;2.63;65.13;100641.03;12175668;19;20430;-82
2022/12/10 12:03:14;;;;;;;11.40;7.20;;;4.20;60.10;;;2.66;65.29;100651.28;12175593;19;20324;-82
2022/12/10 12:07:46;;;;;;;8.98;6.38;;;4.20;60.10;;;2.65;65.13;100657.34;12180945;19;20420;-82
2022/12/10 12:12:08;;;;;;;7.85;5.85;;;4.20;60.10;;;2.60;64.98;100641.97;12175896;19;20022;-82
2022/12/10 12:16:31;;;;;;;10.38;7.35;;;4.20;60.00;;;2.66;65.12;100651.28;12177295;19;20473;-82
2022/12/10 12:20:56;;;;;;;9.73;6.03;;;4.20;59.90;;;2.57;65.09;100644.63;12178351;19;20456;-82
2022/12/10 12:25:26;;;;;;;10.17;6.37;;;4.20;59.90;;;2.69;65.14;100655.50;12164356;19;20026;-82
2022/12/10 12:29:41;;;;;;;10.10;6.63;;;4.20;59.90;;;2.68;65.17;100659.00;12159022;19;20022;-82
2022/12/10 12:33:59;;;;;;;10.97;6.67;;;4.20;59.90;;;2.45;65.12;100626.84;12173737;19;20022;-83
2022/12/10 12:51:09;;;;;;;10.13;7.22;;;4.30;59.80;;;2.72;65.09;100653.69;12184075;19;20038;-83
2022/12/10 12:55:20;;;;;;;10.07;7.35;;;4.30;59.80;;;2.57;64.98;100631.72;12181715;19;20905;-82
2022/12/10 12:59:51;;;;;;;9.18;7.10;;;4.30;59.80;;;2.75;64.86;100661.34;12182245;19;20403;-83
2022/12/10 13:40:06;;;;;;;10.65;6.97;;;4.20;59.60;;;2.26;65.09;100623.84;12210647;19;20022;-83
2022/12/10 13:44:49;;;;;;;8.73;6.45;;;4.20;59.60;;;2.66;64.92;100690.78;12191768;19;20355;-82
2022/12/10 13:49:06;;;;;;;7.80;5.75;;;4.20;59.60;;;2.27;65.12;100630.72;12188123;19;20506;-82
2022/12/10 13:53:28;;;;;;;9.63;6.18;;;4.20;59.70;;;2.37;64.95;100654.53;12186222;19;21133;-82
2022/12/10 13:58:18;;;;;;;8.73;6.28;;;4.20;59.60;;;2.36;64.98;100648.53;12176215;19;20018;-82
2022/12/10 14:02:35;;;;;;;9.85;6.38;;;4.20;59.70;;;2.70;64.86;100703.59;12182639;19;20023;-82
2022/12/10 14:06:41;;;;;;;8.13;6.43;;;4.20;59.70;;;2.68;65.13;100692.50;12184626;19;20390;-82
2022/12/10 14:10:47;;;;;;;8.73;6.80;;;4.20;59.70;;;2.16;65.17;100605.19;12184311;19;20761;-83
2022/12/10 14:15:22;;;;;;;9.35;6.38;;;4.20;59.60;;;2.26;64.92;100636.72;12176726;19;20025;-84
2022/12/10 14:19:28;;;;;;;11.13;7.22;;;4.20;59.60;;;2.27;65.07;100632.41;12175411;19;20018;-82
2022/12/10 14:23:37;;;;;;;8.73;6.45;;;4.20;59.60;;;2.65;64.89;100694.25;12176264;19;20316;-83
2022/12/10 14:27:39;;;;;;;10.82;6.30;;;4.20;59.50;;;2.68;64.91;100705.41;12176361;19;20019;-82
2022/12/10 14:31:48;;;;;;;11.80;7.88;;;4.20;59.50;;;2.68;65.06;100695.91;12176238;19;20587;-83
2022/12/10 14:35:52;;;;;;;10.73;7.20;;;4.20;59.50;;;2.60;65.01;100684.94;12182413;19;20018;-82
2022/12/10 14:56:19;;;;;;;8.65;5.97;;;4.00;59.50;;;2.25;64.74;100657.38;12170756;19;20014;-82
2022/12/10 15:00:41;;;;;;;11.57;7.32;;;4.20;59.50;;;2.21;64.85;100652.31;12161895;19;20113;-82
2022/12/10 15:05:04;;;;;;;9.13;5.90;;;4.20;59.50;;;2.24;64.84;100656.50;12171618;19;20015;-83
2022/12/10 15:09:24;;;;;;;12.85;7.82;;;4.20;59.50;;;2.31;64.90;100670.13;12170720;19;20029;-82
2022/12/10 15:13:39;;;;;;;11.77;7.82;;;4.30;59.50;;;2.19;64.69;100655.78;12162335;19;20395;-82
2022/12/10 15:46:06;;;;;;;15.50;9.57;;;4.10;59.50;;;2.21;64.92;100665.19;12169790;19;20030;-83
2022/12/10 15:50:19;;;;;;;20.15;12.18;;;4.20;59.50;;;2.25;64.74;100667.69;12160311;19;20018;-83
2022/12/10 16:17:30;;;;;;;;;;;;;;;;;;;;;
2022/12/10 16:22:08;;;;;;;17.90;8.88;;;4.10;59.50;;;2.09;64.94;100675.75;12177814;19;20062;-83
2022/12/10 16:27:32;;;;;;;;;;;;;;;;;;;;;
2022/12/10 16:38:11;;;;;;;11.80;6.75;;;3.90;59.30;;;1.80;64.69;100640.28;12162652;19;20018;-83
2022/12/10 16:43:14;;;;;;;14.57;7.40;;;4.00;59.30;;;2.20;64.87;100703.84;12165096;19;21079;-83
2022/12/10 16:48:32;;;;;;;;;;;;;;;;;;;;;
2022/12/10 17:04:03;;;;;;;;;;;;;;;;;;;;;
2022/12/10 17:08:42;;;;;;;15.00;7.63;;;4.10;59.40;;;1.88;64.86;100642.72;12152147;19;20109;-83
2022/12/10 17:13:37;;;;;;;;;;;;;;;;;;;;;
2022/12/10 17:18:04;;;;;;;;;;;;;;;;;;;;;
2022/12/10 17:22:26;;;;;;;;;;;;;;;;;;;;;
2022/12/10 17:27:09;;;;;;;15.80;9.55;;;4.10;59.20;;;2.13;64.69;100687.69;12184128;19;20439;-84
2022/12/10 17:31:16;;;;;;;15.43;9.15;;;4.10;59.20;;;2.09;64.70;100680.88;12180649;19;20077;-83
2022/12/10 17:35:32;;;;;;;16.13;9.30;;;4.30;59.40;;;2.21;64.71;100703.84;12180664;19;20018;-83
2022/12/10 17:40:03;;;;;;;;;;;;;;;;;;;;;
2022/12/10 17:44:22;;;;;;;15.13;7.38;;;4.00;59.30;;;2.12;64.86;100688.56;12183229;19;20026;-84
2022/12/10 17:48:24;;;;;;;14.77;7.82;;;3.90;59.20;;;2.35;64.60;100724.16;12181524;19;20011;-84
2022/12/10 17:52:26;;;;;;;16.38;7.85;;;4.10;59.30;;;2.40;64.78;100730.06;12179740;19;20281;-84
2022/12/10 17:56:29;;;;;;;13.13;7.40;;;4.10;59.30;;;2.48;64.94;100742.75;12179409;19;20020;-84
2022/12/10 18:00:35;;;;;;;15.73;8.20;;;4.10;59.20;;;2.39;64.71;100730.06;12169770;19;20006;-83
2022/12/10 18:04:40;;;;;;;13.63;7.40;;;4.10;59.30;;;2.49;64.96;100747.03;12175702;19;20597;-83
2022/12/10 18:08:42;;;;;;;18.37;8.30;;;4.10;59.30;;;2.49;64.74;100747.03;12178467;19;20115;-83
2022/12/10 18:12:44;;;;;;;14.35;7.70;;;4.00;59.30;;;2.38;64.79;100734.38;12179454;19;20751;-83
2022/12/10 18:16:46;;;;;;;14.82;8.30;;;4.10;59.40;;;2.58;64.83;100767.44;12180812;19;20783;-83
2022/12/10 18:20:48;;;;;;;16.00;8.00;;;4.10;59.40;;;2.46;64.84;100741.97;12171756;19;20369;-83
2022/12/10 18:24:50;;;;;;;14.02;8.05;;;4.10;59.40;;;2.46;64.75;100747.09;12166699;19;20360;-83
2022/12/10 18:28:59;;;;;;;16.00;8.68;;;4.10;59.40;;;2.51;64.91;100762.44;12163723;19;20280;-83
2022/12/10 18:33:01;;;;;;;15.93;8.18;;;4.00;59.40;;;2.35;64.95;100731.00;12166795;19;20026;-83
2022/12/10 18:37:03;;;;;;;16.35;8.43;;;4.10;59.50;;;2.58;64.85;100769.19;12162936;19;20529;-83
2022/12/10 18:41:11;;;;;;;16.08;7.65;;;4.10;59.50;;;2.58;64.94;100774.34;12160606;19;20019;-83
2022/12/10 18:45:13;;;;;;;21.38;10.38;;;4.10;59.50;;;2.54;64.86;100760.69;12165443;19;20014;-83
2022/12/10 18:49:16;;;;;;;19.33;8.93;;;4.10;59.40;;;2.59;64.79;100768.28;12161406;19;20018;-83
2022/12/10 18:53:18;;;;;;;15.55;8.75;;;4.30;59.50;;;2.53;64.95;100764.13;12154185;19;20046;-85
2022/12/10 18:57:19;;;;;;;15.77;8.45;;;4.10;59.40;;;2.15;64.87;100709.09;12170313;19;20014;-85
2022/12/10 19:01:23;;;;;;;15.18;9.02;;;4.20;59.40;;;2.55;64.92;100779.56;12152244;19;20019;-84
2022/12/10 19:05:25;;;;;;;14.67;8.10;;;4.00;59.30;;;2.41;64.96;100764.41;12161659;19;20046;-84
2022/12/10 19:09:31;;;;;;;14.90;8.98;;;4.00;59.30;;;1.93;64.76;100694.97;12173796;19;20305;-83
2022/12/10 19:13:33;;;;;;;13.18;7.63;;;4.00;59.40;;;2.04;64.82;100705.88;12152791;19;20371;-83
2022/12/10 19:17:48;;;;;;;13.68;7.45;;;4.10;59.40;;;2.09;64.90;100714.38;12158690;19;20391;-83
2022/12/10 19:21:50;;;;;;;12.98;7.35;;;4.10;59.30;;;2.00;64.78;100696.56;12151500;19;20480;-83
2022/12/10 19:25:57;;;;;;;15.05;7.28;;;4.10;59.40;;;2.34;64.88;100748.19;12160724;19;20368;-83
2022/12/10 19:30:02;;;;;;;11.05;7.60;;;4.10;59.30;;;2.11;64.72;100720.34;12162253;19;20691;-83
2022/12/10 19:34:04;;;;;;;15.55;8.38;;;4.10;59.40;;;2.32;64.75;100772.28;12165451;19;20469;-83
2022/12/10 19:38:23;;;;;;;17.92;8.70;;;3.90;59.20;;;1.89;64.80;100708.75;12159322;19;20026;-83
2022/12/10 19:43:37;;;;;;;;;;;;;;;;;;;;;
2022/12/10 19:47:56;;;;;;;9.63;6.68;;;3.90;59.10;;;2.01;64.67;100729.13;12157353;19;20539;-83
2022/12/10 19:51:58;;;;;;;12.02;6.68;;;3.90;59.30;;;1.98;64.76;100727.47;12161921;19;20018;-83
2022/12/10 19:56:00;;;;;;;15.02;7.78;;;3.90;59.40;;;1.95;64.74;100722.38;12165889;19;20025;-83
2022/12/10 20:00:39;;;;;;;14.85;8.45;;;4.00;59.80;;;1.98;64.72;100739.50;12163725;19;20023;-84
2022/12/10 20:04:58;;;;;;;12.77;7.88;;;3.90;59.30;;;1.97;64.98;100735.22;12162886;19;20042;-83
2022/12/10 20:09:49;;;;;;;;;;;;;;;;;;;;;
2022/12/10 20:14:48;;;;;;;12.95;7.57;;;4.20;59.50;;;2.18;64.70;100757.97;12169348;19;20566;-83